Flight Track Log - Related Links

Times and Time Zones

All times are in EDT time to prevent confusion due to time zone crossing. See the FDX1570 flight status page for this flight to view local times or setup timezone preferences in your user account.

Time Position Orientation Groundspeed Altitude Reporting Facility
EDT Latitude Longitude Course Direction KTS MPH feet Rate Location/Type
Thu 04:18:29 AM 35.0167 -89.9667 180° South 190 219 1,400  Level KMEM
Thu 04:18:47 AM 35.0000 -89.9667 180° South 187 215 1,900 1,769 Climbing KMEM
Thu 04:19:47 AM 34.9333 -89.9333 158° South 272 313 3,700 2,571 Climbing KMEM
Thu 04:20:53 AM 34.9333 -89.8333 90° East 288 331 7,300 3,077 Climbing KMEM
Thu 04:21:44 AM 34.9642 -89.7692 60° Northeast 310 357 9,700 2,162 Climbing Memphis Center
Thu 04:22:44 AM 35.0075 -89.6675 62° Northeast 355 409 11,300 1,750 Climbing Memphis Center
Thu 04:23:44 AM 35.0589 -89.5503 62° Northeast 380 437 13,200 1,950 Climbing Memphis Center
Thu 04:24:44 AM 35.1061 -89.4433 62° Northeast 391 450 15,200 2,000 Climbing Memphis Center
Thu 04:25:44 AM 35.1656 -89.3181 60° Northeast 409 471 17,200 2,250 Climbing Memphis Center
Thu 04:26:44 AM 35.2333 -89.1903 57° Northeast 429 494 19,700 9,900 Climbing Memphis Center
Thu 04:27:44 AM 35.3050 -89.0619 56° Northeast 446 513 37,000 1,957 Climbing Memphis Center
Thu 04:33:38 AM 35.7940 -88.2530 56° Northeast 501 577 33,200 -421 Descending FlightAware ADS-B
Thu 04:34:23 AM 35.8590 -88.1450 53° Northeast 507 583 34,200 1,341 Climbing FlightAware ADS-B
Thu 04:35:03 AM 35.9150 -88.0490 54° Northeast 510 587 35,100 1,553 Climbing FlightAware ADS-B
Thu 04:35:48 AM 35.9730 -87.9510 54° Northeast 501 577 36,400 1,341 Climbing FlightAware ADS-B
Thu 04:36:28 AM 36.0290 -87.8570 54° Northeast 494 568 37,000 424 Climbing FlightAware ADS-B
Thu 04:37:13 AM 36.0920 -87.7500 54° Northeast 506 582 37,000  Level FlightAware ADS-B
Thu 04:37:53 AM 36.1480 -87.6540 54° Northeast 508 585 37,000  Level FlightAware ADS-B
Thu 04:38:38 AM 36.2080 -87.5530 54° Northeast 505 581 37,000  Level FlightAware ADS-B
Thu 04:39:18 AM 36.2640 -87.4570 54° Northeast 505 581 37,000  Level FlightAware ADS-B
Thu 04:39:58 AM 36.3170 -87.3650 54° Northeast 503 579 37,000  Level FlightAware ADS-B
Thu 04:40:43 AM 36.3800 -87.2580 54° Northeast 500 575 37,000  Level FlightAware ADS-B
Thu 04:41:23 AM 36.4340 -87.1650 54° Northeast 499 574 37,000  Level FlightAware ADS-B
Thu 04:42:03 AM 36.4880 -87.0690 55° Northeast 498 573 37,000  Level FlightAware ADS-B
Thu 04:42:48 AM 36.5480 -86.9670 54° Northeast 497 572 37,000  Level FlightAware ADS-B
Thu 04:43:28 AM 36.6000 -86.8760 55° Northeast 497 572 37,000  Level FlightAware ADS-B
Thu 04:44:14 AM 36.6656 -86.7620 54° Northeast 498 573 37,000  Level FlightAware ADS-B
Thu 04:44:45 AM 36.7070 -86.6896 54° Northeast 499 574 37,000  Level FlightAware ADS-B
Thu 04:45:17 AM 36.7486 -86.6169 54° Northeast 499 574 37,000  Level FlightAware ADS-B
Thu 04:45:47 AM 36.7894 -86.5443 55° Northeast 499 574 37,000  Level FlightAware ADS-B
Thu 04:46:18 AM 36.8301 -86.4737 54° Northeast 500 575 37,000  Level FlightAware ADS-B
Thu 04:46:48 AM 36.8708 -86.4002 55° Northeast 502 578 37,000  Level FlightAware ADS-B
Thu 04:47:22 AM 36.9165 -86.3195 55° Northeast 505 581 37,000  Level FlightAware ADS-B
Thu 04:47:53 AM 36.9577 -86.2456 55° Northeast 505 581 37,000  Level FlightAware ADS-B
Thu 04:48:24 AM 36.9997 -86.1711 55° Northeast 507 583 37,000  Level FlightAware ADS-B
Thu 04:49:18 AM 37.0710 -86.0460 54° Northeast 512 589 37,000  Level FlightAware ADS-B
Thu 04:50:03 AM 37.1290 -85.9410 55° Northeast 514 592 37,000  Level FlightAware ADS-B
Thu 04:50:33 AM 37.1680 -85.8720 55° Northeast 516 594 37,000  Level FlightAware ADS-B
Thu 04:51:23 AM 37.2340 -85.7530 55° Northeast 517 595 37,000  Level FlightAware ADS-B
Thu 04:52:08 AM 37.3050 -85.6250 55° Northeast 520 598 37,000 -141 Level FlightAware ADS-B
Thu 04:52:48 AM 37.3580 -85.5280 55° Northeast 519 597 36,800 -441 Descending FlightAware ADS-B
Thu 04:53:16 AM 37.3989 -85.4539 55° Northeast 519 597 36,500 -712 Descending FlightAware ADS-B
Thu 04:53:47 AM 37.4399 -85.3801 55° Northeast 516 594 36,100 -984 Descending FlightAware ADS-B
Thu 04:54:17 AM 37.4806 -85.3057 55° Northeast 518 596 35,500 -1,100 Descending FlightAware ADS-B
Thu 04:54:47 AM 37.5222 -85.2286 56° Northeast 519 597 35,000 -484 Descending FlightAware ADS-B
Thu 04:55:19 AM 37.5650 -85.1512 55° Northeast 520 598 35,000  Level FlightAware ADS-B
Thu 04:55:49 AM 37.6063 -85.0736 56° Northeast 522 601 35,000  Level FlightAware ADS-B
Thu 04:56:21 AM 37.6498 -84.9957 55° Northeast 523 602 35,000  Level FlightAware ADS-B
Thu 04:56:56 AM 37.6974 -84.9077 56° Northeast 523 602 35,000  Level FlightAware ADS-B
Thu 04:57:27 AM 37.7398 -84.8291 56° Northeast 527 606 35,000  Level FlightAware ADS-B
Thu 04:58:02 AM 37.7884 -84.7373 56° Northeast 527 606 35,000  Level FlightAware ADS-B
Thu 04:58:34 AM 37.8319 -84.6580 55° Northeast 531 611 35,000  Level FlightAware ADS-B
Thu 04:59:05 AM 37.8756 -84.5752 56° Northeast 533 613 35,000  Level FlightAware ADS-B
Thu 04:59:36 AM 37.9176 -84.4976 56° Northeast 534 615 35,000  Level FlightAware ADS-B
Thu 05:00:09 AM 37.9636 -84.4096 56° Northeast 534 615 35,000  Level FlightAware ADS-B
Thu 05:01:13 AM 38.0480 -84.2510 56° Northeast 535 616 35,000  Level FlightAware ADS-B
Thu 05:02:08 AM 38.1200 -84.1160 56° Northeast 535 616 35,000  Level FlightAware ADS-B
Thu 05:02:48 AM 38.1670 -84.0270 56° Northeast 535 616 35,000  Level FlightAware ADS-B
Thu 05:03:23 AM 38.2280 -83.9100 56° Northeast 537 618 35,000  Level FlightAware ADS-B
Thu 05:04:08 AM 38.2830 -83.8060 56° Northeast 537 618 35,000  Level FlightAware ADS-B
Thu 05:04:58 AM 38.3570 -83.6610 57° Northeast 533 613 35,000  Level FlightAware ADS-B
Thu 05:05:33 AM 38.4040 -83.5750 55° Northeast 532 612 35,000  Level FlightAware ADS-B
Thu 05:06:23 AM 38.4620 -83.4650 56° Northeast 532 612 35,000  Level FlightAware ADS-B
Thu 05:07:03 AM 38.5090 -83.3760 56° Northeast 532 612 35,000  Level FlightAware ADS-B
Thu 05:07:43 AM 38.5560 -83.2870 56° Northeast 532 612 35,000  Level FlightAware ADS-B
Thu 05:08:23 AM 38.6020 -83.1980 57° Northeast 532 612 35,000  Level FlightAware ADS-B
Thu 05:09:03 AM 38.6490 -83.1100 56° Northeast 532 612 35,000  Level FlightAware ADS-B
Thu 05:09:43 AM 38.7410 -82.9170 59° Northeast 535 616 35,000  Level FlightAware ADS-B
Thu 05:10:33 AM 38.8140 -82.7710 57° Northeast 538 619 35,000  Level FlightAware ADS-B
Thu 05:11:13 AM 38.8680 -82.6640 57° Northeast 537 618 35,000  Level FlightAware ADS-B
Thu 05:11:58 AM 38.9270 -82.5460 57° Northeast 538 619 35,000  Level FlightAware ADS-B
Thu 05:12:38 AM 38.9790 -82.4410 57° Northeast 537 618 35,000  Level FlightAware ADS-B
Thu 05:13:18 AM 39.0340 -82.3310 57° Northeast 538 619 35,000  Level FlightAware ADS-B
Thu 05:14:03 AM 39.0970 -82.2070 57° Northeast 538 619 35,000  Level FlightAware ADS-B
Thu 05:14:43 AM 39.1480 -82.1050 57° Northeast 538 619 35,000  Level FlightAware ADS-B
Thu 05:15:28 AM 39.2090 -81.9800 58° Northeast 538 619 35,000  Level FlightAware ADS-B
Thu 05:16:08 AM 39.2610 -81.8740 58° Northeast 537 618 35,000  Level FlightAware ADS-B
Thu 05:16:48 AM 39.3150 -81.7630 58° Northeast 536 617 35,000  Level FlightAware ADS-B
Thu 05:17:33 AM 39.3740 -81.6440 57° Northeast 536 617 35,000  Level FlightAware ADS-B
Thu 05:18:13 AM 39.4280 -81.5330 58° Northeast 535 616 35,000  Level FlightAware ADS-B
Thu 05:18:43 AM 39.4680 -81.4490 58° Northeast 535 616 35,000  Level FlightAware ADS-B
Thu 05:19:18 AM 39.5110 -81.3620 57° Northeast 534 615 35,000  Level FlightAware ADS-B
Thu 05:20:08 AM 39.5780 -81.2210 58° Northeast 535 616 35,000  Level FlightAware ADS-B
Thu 05:20:48 AM 39.6300 -81.1150 57° Northeast 536 617 35,000  Level FlightAware ADS-B
Thu 05:21:28 AM 39.6820 -81.0050 58° Northeast 538 619 35,000  Level FlightAware ADS-B
Thu 05:22:13 AM 39.7430 -80.8790 58° Northeast 540 621 35,000  Level FlightAware ADS-B
Thu 05:22:53 AM 39.7960 -80.7650 59° Northeast 542 624 35,000  Level FlightAware ADS-B
Thu 05:23:38 AM 39.8550 -80.6430 58° Northeast 543 625 35,000  Level FlightAware ADS-B
Thu 05:24:18 AM 39.9050 -80.5350 59° Northeast 543 625 35,000  Level FlightAware ADS-B
Thu 05:24:58 AM 39.9590 -80.4230 58° Northeast 544 626 35,000  Level FlightAware ADS-B
Thu 05:25:43 AM 40.0150 -80.3000 59° Northeast 543 625 35,000  Level FlightAware ADS-B
Thu 05:26:23 AM 40.0690 -80.1850 58° Northeast 542 624 35,000  Level FlightAware ADS-B
Thu 05:27:03 AM 40.1240 -80.0670 59° Northeast 543 625 35,000  Level FlightAware ADS-B
Thu 05:27:48 AM 40.1770 -79.9530 59° Northeast 542 624 35,000  Level FlightAware ADS-B
Thu 05:28:33 AM 40.2390 -79.8200 59° Northeast 543 625 35,000  Level FlightAware ADS-B
Thu 05:29:13 AM 40.2910 -79.7050 59° Northeast 543 625 35,000  Level FlightAware ADS-B
Thu 05:29:53 AM 40.3410 -79.5950 59° Northeast 542 624 35,000  Level FlightAware ADS-B
Thu 05:30:33 AM 40.3930 -79.4820 59° Northeast 542 624 35,000  Level FlightAware ADS-B
Thu 05:31:18 AM 40.4530 -79.3500 59° Northeast 540 621 35,000  Level FlightAware ADS-B
Thu 05:31:58 AM 40.5020 -79.2430 59° Northeast 540 621 35,000  Level FlightAware ADS-B
Thu 05:32:43 AM 40.5580 -79.1160 60° Northeast 537 618 35,000  Level FlightAware ADS-B
Thu 05:33:23 AM 40.6090 -79.0040 59° Northeast 533 613 35,000  Level FlightAware ADS-B
Thu 05:34:08 AM 40.6670 -78.8760 59° Northeast 528 608 35,000  Level FlightAware ADS-B
Thu 05:34:48 AM 40.7140 -78.7680 60° Northeast 524 603 35,000  Level FlightAware ADS-B
Thu 05:35:23 AM 40.7550 -78.6770 59° Northeast 522 601 35,000  Level FlightAware ADS-B
Thu 05:36:13 AM 40.8100 -78.5510 60° Northeast 521 600 35,000  Level FlightAware ADS-B
Thu 05:36:53 AM 40.8580 -78.4440 59° Northeast 520 598 35,000  Level FlightAware ADS-B
Thu 05:37:33 AM 40.9070 -78.3310 60° Northeast 519 597 35,000  Level FlightAware ADS-B
Thu 05:38:18 AM 40.9610 -78.2080 60° Northeast 518 596 35,000  Level FlightAware ADS-B
Thu 05:38:58 AM 41.0120 -78.1000 58° Northeast 518 596 35,000  Level FlightAware ADS-B
Thu 05:39:43 AM 41.0730 -77.9820 56° Northeast 517 595 35,000  Level FlightAware ADS-B
Thu 05:40:23 AM 41.1280 -77.8780 55° Northeast 519 597 35,000  Level FlightAware ADS-B
Thu 05:40:47 AM 41.1728 -77.7920 55° Northeast 518 596 35,000  Level FlightAware ADS-B
Thu 05:41:18 AM 41.2155 -77.7114 55° Northeast 520 598 35,000  Level FlightAware ADS-B
Thu 05:41:48 AM 41.2440 -77.6590 54° Northeast 519 597 35,000 -600 Level FlightAware ADS-B
Thu 05:42:28 AM 41.3010 -77.5490 55° Northeast 521 600 34,300 -1,151 Descending FlightAware ADS-B
Thu 05:43:01 AM 41.3575 -77.4442 54° Northeast 522 601 33,600 -1,425 Descending FlightAware ADS-B
Thu 05:43:48 AM 41.4233 -77.3168 55° Northeast 525 604 32,400 -1,696 Descending FlightAware ADS-B
Thu 05:44:33 AM 41.4730 -77.2210 55° Northeast 527 606 31,000 -2,000 Descending FlightAware ADS-B
Thu 05:45:18 AM 41.5350 -77.1020 55° Northeast 517 595 29,400 -1,412 Descending FlightAware ADS-B
Thu 05:45:58 AM 41.5890 -76.9970 55° Northeast 516 594 29,000 -282 Descending FlightAware ADS-B
Thu 05:46:43 AM 41.6480 -76.8830 55° Northeast 528 608 29,000 -141 Level FlightAware ADS-B
Thu 05:47:23 AM 41.7060 -76.7690 56° Northeast 528 608 28,800 -706 Descending FlightAware ADS-B
Thu 05:48:08 AM 41.7650 -76.6520 56° Northeast 531 611 28,000 -1,200 Descending FlightAware ADS-B
Thu 05:48:48 AM 41.8240 -76.5350 56° Northeast 534 615 27,100 -1,425 Descending FlightAware ADS-B
Thu 05:49:28 AM 41.8760 -76.4330 56° Northeast 539 620 26,100 -1,200 Descending FlightAware ADS-B
Thu 05:50:13 AM 41.9400 -76.3060 56° Northeast 535 616 25,400 -825 Descending FlightAware ADS-B
Thu 05:50:48 AM 41.9900 -76.2070 56° Northeast 528 608 25,000 -560 Descending FlightAware ADS-B
Thu 05:51:28 AM 42.0440 -76.0990 56° Northeast 522 601 24,700 -253 Descending FlightAware ADS-B
Thu 05:52:23 AM 42.1120 -75.9640 56° Northeast 520 598 24,600 -63 Descending FlightAware ADS-B
Thu 05:53:03 AM 42.1580 -75.8720 56° Northeast 520 598 24,600  Level FlightAware ADS-B
Thu 05:53:43 AM 42.2040 -75.7810 56° Northeast 520 598 24,600 -424 Level FlightAware ADS-B
Thu 05:54:28 AM 42.2760 -75.6300 57° Northeast 506 582 24,000 -667 Descending FlightAware ADS-B
Thu 05:55:13 AM 42.3360 -75.5080 56° Northeast 495 570 23,600 -565 Descending FlightAware ADS-B
Thu 05:55:53 AM 42.3830 -75.4130 56° Northeast 495 570 23,200 -300 Descending FlightAware ADS-B
Thu 05:56:33 AM 42.4270 -75.3250 56° Northeast 495 570 23,200  Level FlightAware ADS-B
Thu 05:57:13 AM 42.4700 -75.2380 56° Northeast 495 570 23,200  Level FlightAware ADS-B
Thu 05:58:03 AM 42.5250 -75.1280 56° Northeast 495 570 23,200  Level FlightAware ADS-B
Thu 05:58:43 AM 42.5680 -75.0410 56° Northeast 495 570 23,200  Level FlightAware ADS-B
Thu 05:59:23 AM 42.6120 -74.9530 56° Northeast 495 570 23,200 -9,324 Level FlightAware ADS-B
Thu 05:59:57 AM 42.5667 -74.7461 56° Northeast 414 476 11,700 -7,200 Descending Boston Center
Thu 06:01:03 AM 42.5925 -74.6006 76° East 388 447 11,200 -524 Descending Boston Center
Thu 06:02:03 AM 42.6153 -74.4969 73° East 332 382 10,600 -1,050 Descending Boston Center
Thu 06:03:03 AM 42.6653 -74.3800 60° Northeast 319 367 9,100 -1,450 Descending Boston Center
Thu 06:04:03 AM 42.7064 -74.2881 59° Northeast 314 361 7,700 -1,400 Descending Boston Center
Thu 06:05:03 AM 42.7581 -74.1764 58° Northeast 314 361 6,300 -1,250 Descending Boston Center
Thu 06:06:03 AM 42.7989 -74.0897 57° Northeast 314 361 5,200 -1,250 Descending Boston Center
Thu 06:07:03 AM 42.8400 -73.9975 59° Northeast 301 346 3,800 -1,200 Descending Boston Center
Thu 06:08:03 AM 42.8767 -73.8964 64° Northeast 279 321 2,800 -700 Descending Boston Center
Thu 06:09:03 AM 42.8611 -73.8167 105° East 232 267 2,400 -850 Descending Boston Center
Thu 06:10:10 AM 42.7964 -73.8097 175° South 115 132 1,000 -945 Descending Boston Center
Thu 06:11:10 AM 42.7631 -73.8061 175° South 110 127 400 -600 Descending Boston Center

Login

Don't have an account? Register now (free) for customized features, flight alerts, and more!